Waynesburg, Ohio
Current Conditions -  °F | °C
As of 12:13 PM on Thursday 30 Oct 2014 (Local Time) from KPHD Reporting Station
Broken Clouds Broken Clouds  
Wind Chill: 51°   Ceiling: 2600
Heat Index: 51°   Visibility: 10mi
Dew Point: 38°   Wind: 12mph
Humidity: 61%   Direction: 340°NNW
Pressure: 30.13"   Gusts: NA
Location:  40.67°N, 81.26°W
Report Text: KPHD 301613Z AUTO 34010KT 10SM BKN026 11/03 A3013 RMK AO2 T01060033
Loading
Personal Weather Stations






























Interactive Weather Map
Tropical Storm Tracking
New forecast layout! Learn more

10-Day Weather Forecast

Advertisements
Track Severe Weather on mobile